sensor_id;sensor_type;location;lat;lon;timestamp;P1;durP1;ratioP1;P2;durP2;ratioP2
35257;SDS011;21385;50.878;8.050;2022-08-21T00:01:09;7.65;;;5.90;;
35257;SDS011;21385;50.878;8.050;2022-08-21T00:03:38;8.77;;;6.20;;
35257;SDS011;21385;50.878;8.050;2022-08-21T00:06:03;9.88;;;6.22;;
35257;SDS011;21385;50.878;8.050;2022-08-21T00:08:29;6.53;;;5.45;;
35257;SDS011;21385;50.878;8.050;2022-08-21T00:10:55;6.43;;;5.55;;
35257;SDS011;21385;50.878;8.050;2022-08-21T00:13:20;7.10;;;5.43;;
35257;SDS011;21385;50.878;8.050;2022-08-21T00:15:47;9.68;;;6.85;;
35257;SDS011;21385;50.878;8.050;2022-08-21T00:18:14;9.48;;;6.68;;
35257;SDS011;21385;50.878;8.050;2022-08-21T00:20:41;6.38;;;5.78;;
35257;SDS011;21385;50.878;8.050;2022-08-21T00:23:08;8.00;;;6.32;;
35257;SDS011;21385;50.878;8.050;2022-08-21T00:25:34;7.28;;;6.10;;
35257;SDS011;21385;50.878;8.050;2022-08-21T00:28:00;8.45;;;6.22;;
35257;SDS011;21385;50.878;8.050;2022-08-21T00:30:27;8.57;;;6.60;;
35257;SDS011;21385;50.878;8.050;2022-08-21T00:32:54;8.43;;;6.90;;
35257;SDS011;21385;50.878;8.050;2022-08-21T00:35:26;8.50;;;7.05;;
35257;SDS011;21385;50.878;8.050;2022-08-21T00:37:54;10.90;;;7.40;;
35257;SDS011;21385;50.878;8.050;2022-08-21T00:40:22;7.63;;;6.82;;
35257;SDS011;21385;50.878;8.050;2022-08-21T00:42:52;8.40;;;7.15;;
35257;SDS011;21385;50.878;8.050;2022-08-21T00:45:18;7.60;;;6.80;;
35257;SDS011;21385;50.878;8.050;2022-08-21T00:47:43;8.27;;;7.35;;
35257;SDS011;21385;50.878;8.050;2022-08-21T00:50:09;7.38;;;6.43;;
35257;SDS011;21385;50.878;8.050;2022-08-21T00:52:36;7.20;;;6.22;;
35257;SDS011;21385;50.878;8.050;2022-08-21T00:55:05;8.50;;;7.38;;
35257;SDS011;21385;50.878;8.050;2022-08-21T00:57:39;11.55;;;6.03;;
35257;SDS011;21385;50.878;8.050;2022-08-21T01:00:14;7.53;;;6.72;;
35257;SDS011;21385;50.878;8.050;2022-08-21T01:02:44;8.18;;;7.25;;
35257;SDS011;21385;50.878;8.050;2022-08-21T01:05:10;7.68;;;6.88;;
35257;SDS011;21385;50.878;8.050;2022-08-21T01:07:37;6.97;;;6.28;;
35257;SDS011;21385;50.878;8.050;2022-08-21T01:10:03;10.65;;;7.20;;
35257;SDS011;21385;50.878;8.050;2022-08-21T01:12:31;7.70;;;6.13;;
35257;SDS011;21385;50.878;8.050;2022-08-21T01:14:58;7.90;;;6.63;;
35257;SDS011;21385;50.878;8.050;2022-08-21T01:17:25;6.88;;;5.70;;
35257;SDS011;21385;50.878;8.050;2022-08-21T01:19:52;9.68;;;6.80;;
35257;SDS011;21385;50.878;8.050;2022-08-21T01:22:22;8.38;;;6.25;;
35257;SDS011;21385;50.878;8.050;2022-08-21T01:24:47;8.43;;;6.38;;
35257;SDS011;21385;50.878;8.050;2022-08-21T01:27:14;9.27;;;6.68;;
35257;SDS011;21385;50.878;8.050;2022-08-21T01:32:11;6.95;;;6.15;;
35257;SDS011;21385;50.878;8.050;2022-08-21T01:34:40;7.70;;;6.00;;
35257;SDS011;21385;50.878;8.050;2022-08-21T01:37:07;6.93;;;6.07;;
35257;SDS011;21385;50.878;8.050;2022-08-21T01:39:34;8.25;;;6.80;;
35257;SDS011;21385;50.878;8.050;2022-08-21T01:42:00;7.75;;;6.68;;
35257;SDS011;21385;50.878;8.050;2022-08-21T01:44:25;7.53;;;6.15;;
35257;SDS011;21385;50.878;8.050;2022-08-21T01:46:52;7.97;;;6.15;;
35257;SDS011;21385;50.878;8.050;2022-08-21T01:49:18;6.63;;;5.90;;
35257;SDS011;21385;50.878;8.050;2022-08-21T01:51:44;9.98;;;7.00;;
35257;SDS011;21385;50.878;8.050;2022-08-21T01:54:09;6.85;;;6.15;;
35257;SDS011;21385;50.878;8.050;2022-08-21T01:56:37;8.73;;;6.30;;
35257;SDS011;21385;50.878;8.050;2022-08-21T01:59:05;7.50;;;6.45;;
35257;SDS011;21385;50.878;8.050;2022-08-21T02:01:30;6.35;;;5.75;;
35257;SDS011;21385;50.878;8.050;2022-08-21T02:03:56;7.20;;;6.50;;
35257;SDS011;21385;50.878;8.050;2022-08-21T02:06:22;7.40;;;6.70;;
35257;SDS011;21385;50.878;8.050;2022-08-21T02:08:47;8.55;;;6.45;;
35257;SDS011;21385;50.878;8.050;2022-08-21T02:11:15;9.38;;;6.75;;
35257;SDS011;21385;50.878;8.050;2022-08-21T02:13:41;7.30;;;5.82;;
35257;SDS011;21385;50.878;8.050;2022-08-21T02:16:06;7.30;;;6.03;;
35257;SDS011;21385;50.878;8.050;2022-08-21T02:18:33;6.70;;;6.10;;
35257;SDS011;21385;50.878;8.050;2022-08-21T02:20:59;5.93;;;5.32;;
35257;SDS011;21385;50.878;8.050;2022-08-21T02:23:24;6.38;;;4.97;;
35257;SDS011;21385;50.878;8.050;2022-08-21T02:25:50;6.25;;;5.30;;
35257;SDS011;21385;50.878;8.050;2022-08-21T02:28:15;6.05;;;5.50;;
35257;SDS011;21385;50.878;8.050;2022-08-21T02:30:42;6.82;;;4.88;;
35257;SDS011;21385;50.878;8.050;2022-08-21T02:33:10;7.53;;;6.28;;
35257;SDS011;21385;50.878;8.050;2022-08-21T02:35:37;8.88;;;6.50;;
35257;SDS011;21385;50.878;8.050;2022-08-21T02:38:07;7.60;;;5.38;;
35257;SDS011;21385;50.878;8.050;2022-08-21T02:40:35;7.78;;;6.05;;
35257;SDS011;21385;50.878;8.050;2022-08-21T02:43:03;8.50;;;6.50;;
35257;SDS011;21385;50.878;8.050;2022-08-21T02:45:31;9.35;;;6.30;;
35257;SDS011;21385;50.878;8.050;2022-08-21T02:47:58;6.13;;;5.63;;
35257;SDS011;21385;50.878;8.050;2022-08-21T02:50:30;7.68;;;6.10;;
35257;SDS011;21385;50.878;8.050;2022-08-21T02:53:00;6.95;;;6.25;;
35257;SDS011;21385;50.878;8.050;2022-08-21T02:55:27;6.95;;;5.93;;
35257;SDS011;21385;50.878;8.050;2022-08-21T02:57:55;6.85;;;6.07;;
35257;SDS011;21385;50.878;8.050;2022-08-21T03:00:22;8.52;;;5.60;;
35257;SDS011;21385;50.878;8.050;2022-08-21T03:02:50;5.88;;;5.15;;
35257;SDS011;21385;50.878;8.050;2022-08-21T03:05:18;6.97;;;5.57;;
35257;SDS011;21385;50.878;8.050;2022-08-21T03:07:44;5.47;;;4.90;;
35257;SDS011;21385;50.878;8.050;2022-08-21T03:10:12;9.30;;;6.25;;
35257;SDS011;21385;50.878;8.050;2022-08-21T03:12:39;7.10;;;5.32;;
35257;SDS011;21385;50.878;8.050;2022-08-21T03:15:06;6.80;;;5.85;;
35257;SDS011;21385;50.878;8.050;2022-08-21T03:17:38;5.97;;;5.40;;
35257;SDS011;21385;50.878;8.050;2022-08-21T03:20:05;6.30;;;5.70;;
35257;SDS011;21385;50.878;8.050;2022-08-21T03:22:31;6.65;;;5.15;;
35257;SDS011;21385;50.878;8.050;2022-08-21T03:24:57;8.32;;;5.78;;
35257;SDS011;21385;50.878;8.050;2022-08-21T03:27:24;6.25;;;5.38;;
35257;SDS011;21385;50.878;8.050;2022-08-21T03:29:51;5.30;;;4.80;;
35257;SDS011;21385;50.878;8.050;2022-08-21T03:32:17;6.75;;;5.70;;
35257;SDS011;21385;50.878;8.050;2022-08-21T03:34:43;6.10;;;5.50;;
35257;SDS011;21385;50.878;8.050;2022-08-21T03:37:08;8.13;;;5.82;;
35257;SDS011;21385;50.878;8.050;2022-08-21T03:39:35;7.13;;;6.43;;
35257;SDS011;21385;50.878;8.050;2022-08-21T03:42:00;7.35;;;5.85;;
35257;SDS011;21385;50.878;8.050;2022-08-21T03:44:26;6.85;;;6.13;;
35257;SDS011;21385;50.878;8.050;2022-08-21T03:46:53;6.70;;;5.70;;
35257;SDS011;21385;50.878;8.050;2022-08-21T03:49:20;8.85;;;5.68;;
35257;SDS011;21385;50.878;8.050;2022-08-21T03:51:45;7.07;;;6.10;;
35257;SDS011;21385;50.878;8.050;2022-08-21T03:54:11;7.50;;;6.20;;
35257;SDS011;21385;50.878;8.050;2022-08-21T03:56:37;7.13;;;6.18;;
35257;SDS011;21385;50.878;8.050;2022-08-21T03:59:02;9.40;;;7.00;;
35257;SDS011;21385;50.878;8.050;2022-08-21T04:01:28;7.38;;;6.65;;
35257;SDS011;21385;50.878;8.050;2022-08-21T04:03:54;7.40;;;6.65;;
35257;SDS011;21385;50.878;8.050;2022-08-21T04:06:20;7.80;;;7.10;;
35257;SDS011;21385;50.878;8.050;2022-08-21T04:08:45;8.02;;;7.22;;
35257;SDS011;21385;50.878;8.050;2022-08-21T04:11:11;9.25;;;7.28;;
35257;SDS011;21385;50.878;8.050;2022-08-21T04:13:37;7.25;;;6.20;;
35257;SDS011;21385;50.878;8.050;2022-08-21T04:16:03;7.30;;;6.30;;
35257;SDS011;21385;50.878;8.050;2022-08-21T04:18:29;7.30;;;5.35;;
35257;SDS011;21385;50.878;8.050;2022-08-21T04:20:56;5.75;;;4.90;;
35257;SDS011;21385;50.878;8.050;2022-08-21T04:23:23;6.43;;;5.13;;
35257;SDS011;21385;50.878;8.050;2022-08-21T04:25:49;6.75;;;5.38;;
35257;SDS011;21385;50.878;8.050;2022-08-21T04:28:15;7.43;;;5.10;;
35257;SDS011;21385;50.878;8.050;2022-08-21T04:30:41;6.88;;;6.22;;
35257;SDS011;21385;50.878;8.050;2022-08-21T04:33:07;6.78;;;5.60;;
35257;SDS011;21385;50.878;8.050;2022-08-21T04:35:32;6.30;;;5.70;;
35257;SDS011;21385;50.878;8.050;2022-08-21T04:37:58;6.28;;;5.65;;
35257;SDS011;21385;50.878;8.050;2022-08-21T04:40:24;6.50;;;5.68;;
35257;SDS011;21385;50.878;8.050;2022-08-21T04:42:52;6.03;;;5.43;;
35257;SDS011;21385;50.878;8.050;2022-08-21T04:45:25;6.95;;;5.35;;
35257;SDS011;21385;50.878;8.050;2022-08-21T04:47:53;5.90;;;4.50;;
35257;SDS011;21385;50.878;8.050;2022-08-21T04:50:22;6.22;;;5.30;;
35257;SDS011;21385;50.878;8.050;2022-08-21T04:52:53;5.50;;;5.00;;
35257;SDS011;21385;50.878;8.050;2022-08-21T04:55:19;8.70;;;5.32;;
35257;SDS011;21385;50.878;8.050;2022-08-21T04:57:47;7.25;;;5.70;;
35257;SDS011;21385;50.878;8.050;2022-08-21T05:00:15;7.68;;;5.93;;
35257;SDS011;21385;50.878;8.050;2022-08-21T05:02:43;5.93;;;5.32;;
35257;SDS011;21385;50.878;8.050;2022-08-21T05:05:12;6.15;;;5.55;;
35257;SDS011;21385;50.878;8.050;2022-08-21T05:07:37;7.10;;;6.10;;
35257;SDS011;21385;50.878;8.050;2022-08-21T05:10:03;6.75;;;5.55;;
35257;SDS011;21385;50.878;8.050;2022-08-21T05:12:30;5.13;;;4.63;;
35257;SDS011;21385;50.878;8.050;2022-08-21T05:14:56;7.22;;;4.82;;
35257;SDS011;21385;50.878;8.050;2022-08-21T05:17:22;7.05;;;5.05;;
35257;SDS011;21385;50.878;8.050;2022-08-21T05:19:48;6.22;;;5.60;;
35257;SDS011;21385;50.878;8.050;2022-08-21T05:22:20;5.47;;;4.85;;
35257;SDS011;21385;50.878;8.050;2022-08-21T05:24:49;6.70;;;4.85;;
35257;SDS011;21385;50.878;8.050;2022-08-21T05:27:15;6.82;;;5.28;;
35257;SDS011;21385;50.878;8.050;2022-08-21T05:29:40;7.07;;;5.30;;
35257;SDS011;21385;50.878;8.050;2022-08-21T05:32:09;6.35;;;4.50;;
35257;SDS011;21385;50.878;8.050;2022-08-21T05:34:37;6.32;;;5.00;;
35257;SDS011;21385;50.878;8.050;2022-08-21T05:37:02;6.55;;;5.30;;
35257;SDS011;21385;50.878;8.050;2022-08-21T05:39:28;6.07;;;5.47;;
35257;SDS011;21385;50.878;8.050;2022-08-21T05:41:54;7.10;;;5.63;;
35257;SDS011;21385;50.878;8.050;2022-08-21T05:44:20;7.68;;;6.70;;
35257;SDS011;21385;50.878;8.050;2022-08-21T05:46:45;8.60;;;7.18;;
35257;SDS011;21385;50.878;8.050;2022-08-21T05:49:11;13.15;;;9.18;;
35257;SDS011;21385;50.878;8.050;2022-08-21T05:51:39;11.88;;;10.27;;
35257;SDS011;21385;50.878;8.050;2022-08-21T05:54:06;12.40;;;10.88;;
35257;SDS011;21385;50.878;8.050;2022-08-21T05:56:32;14.43;;;11.38;;
35257;SDS011;21385;50.878;8.050;2022-08-21T05:58:58;12.38;;;11.07;;
35257;SDS011;21385;50.878;8.050;2022-08-21T06:01:24;12.40;;;10.38;;
35257;SDS011;21385;50.878;8.050;2022-08-21T06:03:50;10.80;;;9.68;;
35257;SDS011;21385;50.878;8.050;2022-08-21T06:06:16;13.43;;;10.23;;
35257;SDS011;21385;50.878;8.050;2022-08-21T06:08:42;11.02;;;9.60;;
35257;SDS011;21385;50.878;8.050;2022-08-21T06:11:07;12.73;;;11.05;;
35257;SDS011;21385;50.878;8.050;2022-08-21T06:13:34;13.90;;;10.20;;
35257;SDS011;21385;50.878;8.050;2022-08-21T06:16:04;12.98;;;10.38;;
35257;SDS011;21385;50.878;8.050;2022-08-21T06:18:37;15.48;;;9.68;;
35257;SDS011;21385;50.878;8.050;2022-08-21T06:21:03;11.38;;;9.32;;
35257;SDS011;21385;50.878;8.050;2022-08-21T06:23:30;12.25;;;9.75;;
35257;SDS011;21385;50.878;8.050;2022-08-21T06:25:55;15.23;;;9.80;;
35257;SDS011;21385;50.878;8.050;2022-08-21T06:28:21;11.23;;;9.25;;
35257;SDS011;21385;50.878;8.050;2022-08-21T06:30:47;10.68;;;7.80;;
35257;SDS011;21385;50.878;8.050;2022-08-21T06:33:12;9.77;;;8.70;;
35257;SDS011;21385;50.878;8.050;2022-08-21T06:35:38;14.00;;;9.07;;
35257;SDS011;21385;50.878;8.050;2022-08-21T06:38:04;9.95;;;8.00;;
35257;SDS011;21385;50.878;8.050;2022-08-21T06:40:30;9.88;;;7.80;;
35257;SDS011;21385;50.878;8.050;2022-08-21T06:43:05;9.68;;;7.72;;
35257;SDS011;21385;50.878;8.050;2022-08-21T06:45:35;11.50;;;7.35;;
35257;SDS011;21385;50.878;8.050;2022-08-21T06:48:00;12.32;;;7.90;;
35257;SDS011;21385;50.878;8.050;2022-08-21T06:50:26;8.82;;;6.93;;
35257;SDS011;21385;50.878;8.050;2022-08-21T06:53:09;10.50;;;6.65;;
35257;SDS011;21385;50.878;8.050;2022-08-21T06:55:37;9.18;;;6.90;;
35257;SDS011;21385;50.878;8.050;2022-08-21T06:58:04;8.80;;;7.22;;
35257;SDS011;21385;50.878;8.050;2022-08-21T07:00:30;7.57;;;6.78;;
35257;SDS011;21385;50.878;8.050;2022-08-21T07:02:56;8.85;;;6.20;;
35257;SDS011;21385;50.878;8.050;2022-08-21T07:05:24;7.18;;;6.22;;
35257;SDS011;21385;50.878;8.050;2022-08-21T07:07:51;11.50;;;7.03;;
35257;SDS011;21385;50.878;8.050;2022-08-21T07:10:17;8.68;;;6.50;;
35257;SDS011;21385;50.878;8.050;2022-08-21T07:12:42;9.32;;;6.57;;
35257;SDS011;21385;50.878;8.050;2022-08-21T07:15:08;8.10;;;6.80;;
35257;SDS011;21385;50.878;8.050;2022-08-21T07:17:34;9.20;;;6.15;;
35257;SDS011;21385;50.878;8.050;2022-08-21T07:20:00;8.70;;;6.25;;
35257;SDS011;21385;50.878;8.050;2022-08-21T07:22:26;7.05;;;5.68;;
35257;SDS011;21385;50.878;8.050;2022-08-21T07:24:52;8.55;;;6.80;;
35257;SDS011;21385;50.878;8.050;2022-08-21T07:27:19;7.10;;;5.90;;
35257;SDS011;21385;50.878;8.050;2022-08-21T07:29:44;10.40;;;6.78;;
35257;SDS011;21385;50.878;8.050;2022-08-21T07:32:10;7.72;;;5.20;;
35257;SDS011;21385;50.878;8.050;2022-08-21T07:34:35;6.82;;;5.78;;
35257;SDS011;21385;50.878;8.050;2022-08-21T07:37:01;7.18;;;6.05;;
35257;SDS011;21385;50.878;8.050;2022-08-21T07:39:27;8.73;;;5.75;;
35257;SDS011;21385;50.878;8.050;2022-08-21T07:41:52;7.30;;;6.20;;
35257;SDS011;21385;50.878;8.050;2022-08-21T07:44:18;10.43;;;6.95;;
35257;SDS011;21385;50.878;8.050;2022-08-21T07:46:43;11.38;;;6.60;;
35257;SDS011;21385;50.878;8.050;2022-08-21T07:49:09;10.40;;;6.18;;
35257;SDS011;21385;50.878;8.050;2022-08-21T07:51:34;8.93;;;6.13;;
35257;SDS011;21385;50.878;8.050;2022-08-21T07:54:00;9.85;;;6.25;;
35257;SDS011;21385;50.878;8.050;2022-08-21T07:56:26;12.20;;;7.95;;
35257;SDS011;21385;50.878;8.050;2022-08-21T07:58:52;10.52;;;7.28;;
35257;SDS011;21385;50.878;8.050;2022-08-21T08:01:18;11.68;;;7.45;;
35257;SDS011;21385;50.878;8.050;2022-08-21T08:03:44;9.75;;;5.70;;
35257;SDS011;21385;50.878;8.050;2022-08-21T08:06:11;11.95;;;6.50;;
35257;SDS011;21385;50.878;8.050;2022-08-21T08:08:40;15.25;;;8.00;;
35257;SDS011;21385;50.878;8.050;2022-08-21T08:11:06;10.75;;;6.28;;
35257;SDS011;21385;50.878;8.050;2022-08-21T08:13:37;10.40;;;6.60;;
35257;SDS011;21385;50.878;8.050;2022-08-21T08:16:08;10.60;;;6.75;;
35257;SDS011;21385;50.878;8.050;2022-08-21T08:18:34;11.65;;;7.22;;
35257;SDS011;21385;50.878;8.050;2022-08-21T08:20:59;10.00;;;6.20;;
35257;SDS011;21385;50.878;8.050;2022-08-21T08:23:25;11.88;;;5.30;;
35257;SDS011;21385;50.878;8.050;2022-08-21T08:25:52;13.77;;;5.78;;
35257;SDS011;21385;50.878;8.050;2022-08-21T08:28:18;11.27;;;5.30;;
35257;SDS011;21385;50.878;8.050;2022-08-21T08:30:44;9.88;;;5.32;;
35257;SDS011;21385;50.878;8.050;2022-08-21T08:33:10;8.27;;;4.68;;
35257;SDS011;21385;50.878;8.050;2022-08-21T08:35:36;12.55;;;4.55;;
35257;SDS011;21385;50.878;8.050;2022-08-21T08:38:01;8.55;;;3.60;;
35257;SDS011;21385;50.878;8.050;2022-08-21T08:42:58;9.07;;;3.27;;
35257;SDS011;21385;50.878;8.050;2022-08-21T08:45:24;10.25;;;3.80;;
35257;SDS011;21385;50.878;8.050;2022-08-21T08:48:03;9.40;;;4.53;;
35257;SDS011;21385;50.878;8.050;2022-08-21T08:50:52;15.20;;;5.40;;
35257;SDS011;21385;50.878;8.050;2022-08-21T08:53:26;9.15;;;3.95;;
35257;SDS011;21385;50.878;8.050;2022-08-21T08:55:55;10.32;;;5.18;;
35257;SDS011;21385;50.878;8.050;2022-08-21T08:58:27;9.48;;;3.90;;
35257;SDS011;21385;50.878;8.050;2022-08-21T09:00:59;10.55;;;3.78;;
35257;SDS011;21385;50.878;8.050;2022-08-21T09:03:26;9.15;;;2.55;;
35257;SDS011;21385;50.878;8.050;2022-08-21T09:11:29;10.18;;;3.25;;
35257;SDS011;21385;50.878;8.050;2022-08-21T09:17:04;7.88;;;3.97;;
35257;SDS011;21385;50.878;8.050;2022-08-21T09:20:09;12.35;;;4.10;;
35257;SDS011;21385;50.878;8.050;2022-08-21T09:22:48;9.07;;;4.13;;
35257;SDS011;21385;50.878;8.050;2022-08-21T09:25:42;10.82;;;3.50;;
35257;SDS011;21385;50.878;8.050;2022-08-21T09:28:15;10.85;;;4.03;;
35257;SDS011;21385;50.878;8.050;2022-08-21T09:30:41;8.38;;;3.40;;
35257;SDS011;21385;50.878;8.050;2022-08-21T09:33:07;8.65;;;3.33;;
35257;SDS011;21385;50.878;8.050;2022-08-21T09:35:34;6.63;;;2.97;;
35257;SDS011;21385;50.878;8.050;2022-08-21T09:38:03;6.60;;;2.38;;
35257;SDS011;21385;50.878;8.050;2022-08-21T09:45:32;6.97;;;2.58;;
35257;SDS011;21385;50.878;8.050;2022-08-21T09:48:15;4.53;;;2.25;;
35257;SDS011;21385;50.878;8.050;2022-08-21T09:50:45;6.63;;;2.22;;
35257;SDS011;21385;50.878;8.050;2022-08-21T09:53:16;5.80;;;2.03;;
35257;SDS011;21385;50.878;8.050;2022-08-21T09:55:48;6.85;;;3.03;;
35257;SDS011;21385;50.878;8.050;2022-08-21T09:58:56;6.32;;;2.33;;
35257;SDS011;21385;50.878;8.050;2022-08-21T10:01:22;6.60;;;2.05;;
35257;SDS011;21385;50.878;8.050;2022-08-21T10:04:11;6.60;;;2.05;;
35257;SDS011;21385;50.878;8.050;2022-08-21T10:06:36;6.93;;;1.90;;
35257;SDS011;21385;50.878;8.050;2022-08-21T10:09:06;5.45;;;2.28;;
35257;SDS011;21385;50.878;8.050;2022-08-21T10:11:32;4.63;;;1.93;;
35257;SDS011;21385;50.878;8.050;2022-08-21T10:14:01;5.65;;;2.03;;
35257;SDS011;21385;50.878;8.050;2022-08-21T10:19:14;10.20;;;2.20;;
35257;SDS011;21385;50.878;8.050;2022-08-21T10:24:29;9.07;;;2.00;;
35257;SDS011;21385;50.878;8.050;2022-08-21T10:29:51;7.05;;;2.25;;
35257;SDS011;21385;50.878;8.050;2022-08-21T10:32:32;7.68;;;2.10;;
35257;SDS011;21385;50.878;8.050;2022-08-21T10:35:27;5.50;;;1.92;;
35257;SDS011;21385;50.878;8.050;2022-08-21T10:45:55;5.03;;;1.88;;
35257;SDS011;21385;50.878;8.050;2022-08-21T10:48:39;4.22;;;2.05;;
35257;SDS011;21385;50.878;8.050;2022-08-21T10:51:40;5.38;;;2.30;;
35257;SDS011;21385;50.878;8.050;2022-08-21T10:54:11;6.38;;;2.13;;
35257;SDS011;21385;50.878;8.050;2022-08-21T10:56:44;6.38;;;1.70;;
35257;SDS011;21385;50.878;8.050;2022-08-21T10:59:28;6.97;;;1.85;;
35257;SDS011;21385;50.878;8.050;2022-08-21T11:04:40;5.90;;;1.70;;
35257;SDS011;21385;50.878;8.050;2022-08-21T11:09:47;5.32;;;1.85;;
35257;SDS011;21385;50.878;8.050;2022-08-21T11:12:20;5.68;;;2.05;;
35257;SDS011;21385;50.878;8.050;2022-08-21T11:17:53;4.15;;;2.10;;
35257;SDS011;21385;50.878;8.050;2022-08-21T11:23:25;7.65;;;1.65;;
35257;SDS011;21385;50.878;8.050;2022-08-21T11:26:00;6.10;;;1.67;;
35257;SDS011;21385;50.878;8.050;2022-08-21T11:28:30;11.07;;;2.10;;
35257;SDS011;21385;50.878;8.050;2022-08-21T11:37:11;4.30;;;1.85;;
35257;SDS011;21385;50.878;8.050;2022-08-21T11:39:53;4.53;;;1.63;;
35257;SDS011;21385;50.878;8.050;2022-08-21T11:45:37;8.88;;;2.30;;
35257;SDS011;21385;50.878;8.050;2022-08-21T11:51:20;4.13;;;1.98;;
35257;SDS011;21385;50.878;8.050;2022-08-21T11:54:02;4.13;;;1.50;;
35257;SDS011;21385;50.878;8.050;2022-08-21T11:56:40;3.03;;;1.48;;
35257;SDS011;21385;50.878;8.050;2022-08-21T11:59:14;4.03;;;1.52;;
35257;SDS011;21385;50.878;8.050;2022-08-21T12:01:47;4.25;;;1.50;;
35257;SDS011;21385;50.878;8.050;2022-08-21T12:06:49;4.45;;;1.42;;
35257;SDS011;21385;50.878;8.050;2022-08-21T12:12:01;2.70;;;1.20;;
35257;SDS011;21385;50.878;8.050;2022-08-21T12:14:35;4.43;;;1.50;;
35257;SDS011;21385;50.878;8.050;2022-08-21T12:17:16;3.33;;;1.00;;
35257;SDS011;21385;50.878;8.050;2022-08-21T12:19:44;2.80;;;1.23;;
35257;SDS011;21385;50.878;8.050;2022-08-21T12:22:11;3.13;;;1.30;;
35257;SDS011;21385;50.878;8.050;2022-08-21T12:24:40;4.57;;;1.50;;
35257;SDS011;21385;50.878;8.050;2022-08-21T12:29:45;4.53;;;1.60;;
35257;SDS011;21385;50.878;8.050;2022-08-21T12:40:04;3.78;;;1.33;;
35257;SDS011;21385;50.878;8.050;2022-08-21T12:42:56;2.90;;;1.83;;
35257;SDS011;21385;50.878;8.050;2022-08-21T12:45:37;3.70;;;1.20;;
35257;SDS011;21385;50.878;8.050;2022-08-21T12:48:09;4.75;;;1.33;;
35257;SDS011;21385;50.878;8.050;2022-08-21T12:50:48;1.75;;;1.20;;
35257;SDS011;21385;50.878;8.050;2022-08-21T12:55:48;3.00;;;1.10;;
35257;SDS011;21385;50.878;8.050;2022-08-21T12:58:18;2.65;;;1.10;;
35257;SDS011;21385;50.878;8.050;2022-08-21T13:00:52;2.10;;;1.25;;
35257;SDS011;21385;50.878;8.050;2022-08-21T13:03:26;5.32;;;1.40;;
35257;SDS011;21385;50.878;8.050;2022-08-21T13:05:52;2.47;;;1.10;;
35257;SDS011;21385;50.878;8.050;2022-08-21T13:08:19;1.95;;;1.13;;
35257;SDS011;21385;50.878;8.050;2022-08-21T13:10:47;2.28;;;1.25;;
35257;SDS011;21385;50.878;8.050;2022-08-21T13:13:22;2.65;;;1.48;;
35257;SDS011;21385;50.878;8.050;2022-08-21T13:15:50;3.15;;;1.67;;
35257;SDS011;21385;50.878;8.050;2022-08-21T13:18:24;4.55;;;1.45;;
35257;SDS011;21385;50.878;8.050;2022-08-21T13:21:02;4.25;;;1.55;;
35257;SDS011;21385;50.878;8.050;2022-08-21T13:23:33;2.65;;;1.30;;
35257;SDS011;21385;50.878;8.050;2022-08-21T13:25:59;3.22;;;1.38;;
35257;SDS011;21385;50.878;8.050;2022-08-21T13:28:31;2.58;;;1.30;;
35257;SDS011;21385;50.878;8.050;2022-08-21T13:30:59;2.53;;;1.30;;
35257;SDS011;21385;50.878;8.050;2022-08-21T13:33:26;1.48;;;1.08;;
35257;SDS011;21385;50.878;8.050;2022-08-21T13:38:25;5.13;;;1.30;;
35257;SDS011;21385;50.878;8.050;2022-08-21T13:40:55;3.20;;;1.35;;
35257;SDS011;21385;50.878;8.050;2022-08-21T13:43:25;2.72;;;1.33;;
35257;SDS011;21385;50.878;8.050;2022-08-21T13:45:54;1.88;;;0.95;;
35257;SDS011;21385;50.878;8.050;2022-08-21T13:48:22;5.10;;;1.20;;
35257;SDS011;21385;50.878;8.050;2022-08-21T13:50:51;3.08;;;1.10;;
35257;SDS011;21385;50.878;8.050;2022-08-21T13:55:57;2.78;;;1.58;;
35257;SDS011;21385;50.878;8.050;2022-08-21T13:58:25;4.13;;;1.33;;
35257;SDS011;21385;50.878;8.050;2022-08-21T14:00:52;1.55;;;1.00;;
35257;SDS011;21385;50.878;8.050;2022-08-21T14:03:42;3.45;;;1.30;;
35257;SDS011;21385;50.878;8.050;2022-08-21T14:06:11;2.70;;;1.17;;
35257;SDS011;21385;50.878;8.050;2022-08-21T14:08:53;3.80;;;2.03;;
35257;SDS011;21385;50.878;8.050;2022-08-21T14:11:32;4.57;;;1.30;;
35257;SDS011;21385;50.878;8.050;2022-08-21T14:14:00;2.17;;;0.87;;
35257;SDS011;21385;50.878;8.050;2022-08-21T14:16:40;2.15;;;0.90;;
35257;SDS011;21385;50.878;8.050;2022-08-21T14:19:19;2.15;;;1.08;;
35257;SDS011;21385;50.878;8.050;2022-08-21T14:21:47;2.25;;;1.10;;
35257;SDS011;21385;50.878;8.050;2022-08-21T14:24:14;1.30;;;1.05;;
35257;SDS011;21385;50.878;8.050;2022-08-21T14:26:53;2.42;;;1.02;;
35257;SDS011;21385;50.878;8.050;2022-08-21T14:29:28;2.33;;;1.13;;
35257;SDS011;21385;50.878;8.050;2022-08-21T14:31:59;3.08;;;1.05;;
35257;SDS011;21385;50.878;8.050;2022-08-21T14:34:33;2.90;;;1.25;;
35257;SDS011;21385;50.878;8.050;2022-08-21T14:36:58;2.83;;;1.20;;
35257;SDS011;21385;50.878;8.050;2022-08-21T14:39:24;2.10;;;1.20;;
35257;SDS011;21385;50.878;8.050;2022-08-21T14:41:49;1.55;;;0.98;;
35257;SDS011;21385;50.878;8.050;2022-08-21T14:44:17;2.42;;;1.08;;
35257;SDS011;21385;50.878;8.050;2022-08-21T14:46:44;2.15;;;1.10;;
35257;SDS011;21385;50.878;8.050;2022-08-21T14:49:10;2.22;;;0.93;;
35257;SDS011;21385;50.878;8.050;2022-08-21T14:51:36;2.85;;;0.98;;
35257;SDS011;21385;50.878;8.050;2022-08-21T14:54:03;2.28;;;1.10;;
35257;SDS011;21385;50.878;8.050;2022-08-21T14:56:30;4.45;;;1.17;;
35257;SDS011;21385;50.878;8.050;2022-08-21T14:58:58;2.17;;;1.00;;
35257;SDS011;21385;50.878;8.050;2022-08-21T15:01:27;1.42;;;1.10;;
35257;SDS011;21385;50.878;8.050;2022-08-21T15:03:53;3.63;;;1.10;;
35257;SDS011;21385;50.878;8.050;2022-08-21T15:06:19;3.08;;;1.10;;
35257;SDS011;21385;50.878;8.050;2022-08-21T15:08:46;1.83;;;1.00;;
35257;SDS011;21385;50.878;8.050;2022-08-21T15:11:13;1.92;;;1.30;;
35257;SDS011;21385;50.878;8.050;2022-08-21T15:13:42;4.72;;;1.20;;
35257;SDS011;21385;50.878;8.050;2022-08-21T15:16:09;2.03;;;1.10;;
35257;SDS011;21385;50.878;8.050;2022-08-21T15:18:36;3.42;;;1.23;;
35257;SDS011;21385;50.878;8.050;2022-08-21T15:21:02;2.90;;;1.35;;
35257;SDS011;21385;50.878;8.050;2022-08-21T15:23:28;2.22;;;1.08;;
35257;SDS011;21385;50.878;8.050;2022-08-21T15:25:53;2.70;;;1.20;;
35257;SDS011;21385;50.878;8.050;2022-08-21T15:28:22;1.88;;;1.10;;
35257;SDS011;21385;50.878;8.050;2022-08-21T15:30:48;2.45;;;1.20;;
35257;SDS011;21385;50.878;8.050;2022-08-21T15:33:14;2.25;;;0.90;;
35257;SDS011;21385;50.878;8.050;2022-08-21T15:35:40;4.30;;;1.30;;
35257;SDS011;21385;50.878;8.050;2022-08-21T15:38:05;1.50;;;0.85;;
35257;SDS011;21385;50.878;8.050;2022-08-21T15:40:31;3.95;;;1.08;;
35257;SDS011;21385;50.878;8.050;2022-08-21T15:42:59;2.70;;;1.23;;
35257;SDS011;21385;50.878;8.050;2022-08-21T15:45:26;2.63;;;1.50;;
35257;SDS011;21385;50.878;8.050;2022-08-21T15:47:53;3.03;;;1.10;;
35257;SDS011;21385;50.878;8.050;2022-08-21T15:50:19;2.70;;;1.10;;
35257;SDS011;21385;50.878;8.050;2022-08-21T15:52:45;1.73;;;1.00;;
35257;SDS011;21385;50.878;8.050;2022-08-21T15:55:11;1.67;;;0.98;;
35257;SDS011;21385;50.878;8.050;2022-08-21T15:57:37;2.45;;;1.20;;
35257;SDS011;21385;50.878;8.050;2022-08-21T16:02:44;2.17;;;1.25;;
35257;SDS011;21385;50.878;8.050;2022-08-21T16:05:12;3.67;;;1.20;;
35257;SDS011;21385;50.878;8.050;2022-08-21T16:07:41;3.53;;;1.27;;
35257;SDS011;21385;50.878;8.050;2022-08-21T16:10:08;3.53;;;1.20;;
35257;SDS011;21385;50.878;8.050;2022-08-21T16:12:35;2.03;;;0.95;;
35257;SDS011;21385;50.878;8.050;2022-08-21T16:15:04;3.50;;;1.02;;
35257;SDS011;21385;50.878;8.050;2022-08-21T16:17:32;2.63;;;1.10;;
35257;SDS011;21385;50.878;8.050;2022-08-21T16:19:59;2.35;;;1.10;;